EST,Max TemperatureF,Mean TemperatureF,Min TemperatureF,Max Dew PointF,MeanDew PointF,Min DewpointF,Max Humidity, Mean Humidity, Min Humidity, Max Sea Level PressureIn, Mean Sea Level PressureIn, Min Sea Level PressureIn, Max VisibilityMiles, Mean VisibilityMiles, Min VisibilityMiles, Max Wind SpeedMPH, Mean Wind SpeedMPH, Max Gust SpeedMPH,PrecipitationIn, CloudCover, Events, WindDirDegrees
2013-1-1,32,20,7,27,13,-1,85,69,53,29.97,29.77,29.63,10,6,0,21,7,33,0.04,7,Fog-Snow,320
2013-1-2,12,1,-11,7,0,-15,91,76,60,30.27,29.99,29.83,10,5,1,16,5,23,0.01,7,Snow,5
2013-1-3,9,-5,-20,-4,-10,-23,87,71,55,30.28,30.12,29.89,10,9,4,6,0,7,T,4,Snow,190
2013-1-4,32,17,2,27,18,-2,92,78,63,29.92,29.78,29.70,10,5,0,14,5,25,0.09,8,Fog-Snow,194
2013-1-5,33,18,2,23,13,-1,86,70,54,30.27,30.07,29.76,10,6,1,24,7,43,T,6,Snow,319
2013-1-6,28,17,6,25,18,2,92,86,80,30.21,29.95,29.86,10,3,1,6,0,7,0.07,8,Snow,14
2013-1-7,27,12,-3,25,10,-7,92,77,62,30.39,30.21,29.93,10,7,2,12,3,17,T,5,Snow,21
2013-1-8,37,17,-3,22,11,-6,92,74,56,30.40,30.29,30.19,10,8,4,9,1,13,0.00,1,,334
2013-1-9,42,22,2,29,18,2,92,73,53,30.40,30.14,29.91,10,8,4,20,3,36,0.02,4,Rain,220
2013-1-10,37,29,21,32,26,20,82,68,54,30.58,30.28,29.98,10,8,1,29,11,45,0.05,7,Snow,315
2013-1-11,37,26,15,32,22,14,96,78,59,30.57,30.33,30.10,10,9,4,8,2,13,0.02,4,Rain,182
2013-1-12,43,39,34,36,34,32,100,88,76,30.16,30.10,30.05,10,8,0,13,3,15,T,6,Fog-Rain,171
2013-1-13,47,40,33,37,35,32,100,88,76,30.14,30.00,29.88,10,6,0,10,3,16,0.01,7,Fog,173
2013-1-14,53,43,33,45,33,22,100,75,49,30.28,30.00,29.78,10,8,1,20,6,26,0.00,6,,325
2013-1-15,33,27,21,23,18,16,84,69,53,30.36,30.30,30.26,10,10,10,10,4,15,0.00,5,,348
2013-1-16,29,23,17,27,21,16,96,85,74,30.25,29.89,29.74,10,4,0,7,0,8,0.05,7,Fog-Snow,40
2013-1-17,34,19,4,26,9,-10,92,63,33,30.20,29.99,29.78,10,7,0,24,7,33,0.01,5,Fog-Snow,354
2013-1-18,17,4,-10,0,-8,-15,82,59,36,30.38,30.32,30.20,10,10,8,15,2,23,T,1,,291
2013-1-19,38,23,8,27,15,1,92,72,52,30.23,30.02,29.75,10,5,1,13,3,16,0.12,8,Snow,201
2013-1-20,45,28,11,31,19,3,85,63,41,29.97,29.65,29.40,10,6,1,20,9,29,T,7,Rain-Snow,289
2013-1-21,17,8,-2,7,1,-6,87,67,46,30.08,29.98,29.84,10,8,3,15,4,18,T,6,Snow,8
2013-1-22,14,7,-1,4,-1,-17,91,66,40,30.10,29.90,29.78,10,6,1,15,5,23,T,7,Snow,337
2013-1-23,-1,-8,-15,-9,-18,-21,74,56,38,30.21,30.15,30.03,10,10,6,18,7,28,0.00,3,,336
2013-1-24,8,-5,-18,-10,-17,-24,81,56,31,30.36,30.24,30.16,10,10,5,20,5,29,T,3,Snow,324
2013-1-25,11,4,-3,-2,-8,-11,71,59,46,30.38,30.28,30.13,10,10,7,13,2,16,0.00,5,,8
2013-1-26,13,6,-1,3,-2,-7,83,65,46,30.30,30.20,30.12,10,9,4,15,6,21,T,4,Snow,340
2013-1-27,16,7,-3,1,-4,-9,79,58,36,30.53,30.44,30.25,10,10,10,14,5,20,0.00,2,,354
2013-1-28,19,7,-5,16,9,-10,92,78,63,30.51,30.17,30.01,10,4,0,6,1,8,0.20,7,Fog-Snow,170
2013-1-29,33,19,4,29,17,2,91,83,75,30.22,30.10,30.02,10,9,2,10,3,14,0.01,6,Rain-Snow,178
2013-1-30,57,45,33,51,39,30,100,91,82,29.99,29.61,29.27,10,7,0,17,5,25,0.38,7,Fog-Rain,183
2013-1-31,50,36,22,48,33,3,100,70,40,29.51,29.12,28.81,10,5,0,28,9,39,0.47,8,Fog-Rain-Snow,231